Time;durP1;ratioP1;P1;durP2;ratioP2;P2;SDS_P1;SDS_P2;PMS_P1;PMS_P2;Temp;Humidity;BMP_temperature;BMP_pressure;BME280_temperature;BME280_humidity;BME280_pressure;Samples;Min_cycle;Max_cycle;Signal;HPM_P1;HPM_P2
2022/08/02 00:00:54;;;;;;;;;;;;;;;21.61;100.00;98778.81;4955292;28;20369;-80
2022/08/02 00:03:22;;;;;;;;;;;;;;;21.72;100.00;98770.34;4972250;28;20393;-81
2022/08/02 00:05:49;;;;;;;;;;;;;;;21.95;100.00;98769.25;4971170;28;19953;-81
2022/08/02 00:08:16;;;;;;;;;;;;;;;21.83;100.00;98761.94;4955351;28;20391;-81
2022/08/02 00:10:43;;;;;;;;;;;;;;;21.66;100.00;98754.56;4971194;28;19930;-81
2022/08/02 00:13:10;;;;;;;;;;;;;;;21.72;100.00;98761.81;4971061;28;20021;-81
2022/08/02 00:15:38;;;;;;;;;;;;;;;21.51;100.00;98760.38;4970001;28;20017;-81
2022/08/02 00:18:05;;;;;;;;;;;;;;;21.91;100.00;98754.50;4970823;28;19926;-81
2022/08/02 00:20:32;;;;;;;;;;;;;;;21.48;100.00;98750.00;4971890;28;19926;-81
2022/08/02 00:23:00;;;;;;;;;;;;;;;21.72;100.00;98736.22;4970969;28;19933;-81
2022/08/02 00:25:27;;;;;;;;;;;;;;;21.86;100.00;98741.00;4971187;28;20357;-81
2022/08/02 00:27:54;;;;;;;;;;;;;;;21.63;100.00;98749.88;4972232;28;19930;-81
2022/08/02 00:30:21;;;;;;;;;;;;;;;21.76;100.00;98747.41;4970920;28;19926;-81
2022/08/02 00:32:49;;;;;;;;;;;;;;;21.60;100.00;98731.75;4970840;28;19927;-81
2022/08/02 00:35:16;;;;;;;;;;;;;;;21.68;100.00;98729.22;4971088;28;20378;-81
2022/08/02 00:37:44;;;;;;;;;;;;;;;20.98;100.00;98729.69;4972077;28;19954;-81
2022/08/02 00:40:11;;;;;;;;;;;;;;;21.76;100.00;98719.75;4972111;28;19926;-81
2022/08/02 00:42:38;;;;;;;;;;;;;;;21.70;100.00;98713.22;4970856;28;19933;-81
2022/08/02 00:45:06;;;;;;;;;;;;;;;21.51;100.00;98723.41;4970654;28;20481;-81
2022/08/02 00:47:33;;;;;;;;;;;;;;;21.20;100.00;98712.06;4970706;28;19932;-81
2022/08/02 00:50:00;;;;;;;;;;;;;;;21.71;100.00;98711.94;4970464;28;20282;-81
2022/08/02 00:52:27;;;;;;;;;;;;;;;21.46;100.00;98707.13;4970643;28;20604;-80
2022/08/02 00:54:54;;;;;;;;;;;;;;;21.87;100.00;98704.81;4970629;28;19930;-81
2022/08/02 00:57:21;;;;;;;;;;;;;;;21.89;100.00;98710.75;4974976;28;19957;-80
2022/08/02 00:59:48;;;;;;;;;;;;;;;21.72;100.00;98696.41;4975038;28;19926;-81
2022/08/02 01:02:15;;;;;;;;;;;;;;;21.97;100.00;98709.00;4974802;28;19926;-81
2022/08/02 01:04:43;;;;;;;;;;;;;;;21.89;100.00;98691.66;4973704;28;19926;-81
2022/08/02 01:07:10;;;;;;;;;;;;;;;21.94;100.00;98673.06;4973418;28;20021;-81
2022/08/02 01:09:37;;;;;;;;;;;;;;;21.70;100.00;98670.59;4974822;28;19927;-81
2022/08/02 01:12:04;;;;;;;;;;;;;;;;;;4974809;28;20028;-81
2022/08/02 01:14:32;;;;;;;;;;;;;;;22.15;100.00;98675.22;4973543;28;19926;-81
2022/08/02 01:17:05;;;;;;;;;;;;;;;22.35;100.00;98675.03;4974524;28;19950;-80
2022/08/02 01:19:38;;;;;;;;;;;;;;;22.18;100.00;98677.03;4974312;28;19932;-80
2022/08/02 01:22:15;;;;;;;;;;;;;;;21.89;100.00;98671.72;4957391;28;19926;-80
2022/08/02 01:24:42;;;;;;;;;;;;;;;22.11;100.00;98660.47;4973275;28;19985;-80
2022/08/02 01:27:19;;;;;;;;;;;;;;;21.99;100.00;98652.41;4973056;28;19926;-80
2022/08/02 01:29:50;;;;;;;;;;;;;;;22.13;100.00;98663.56;4957141;28;20339;-80
2022/08/02 01:32:21;;;;;;;;;;;;;;;21.94;100.00;98656.00;4973201;28;20029;-80
2022/08/02 01:34:54;;;;;;;;;;;;;;;22.13;100.00;98657.88;4973081;28;19926;-80
2022/08/02 01:37:23;;;;;;;;;;;;;;;21.98;100.00;98651.59;4973140;28;19926;-80
2022/08/02 01:39:53;;;;;;;;;;;;;;;21.99;100.00;98643.88;4974247;28;20079;-80
2022/08/02 01:42:22;;;;;;;;;;;;;;;22.24;100.00;98640.06;4971561;28;19926;-80
2022/08/02 01:44:52;;;;;;;;;;;;;;;22.33;100.00;98637.00;4973969;28;19926;-80
2022/08/02 01:47:25;;;;;;;;;;;;;;;22.06;100.00;98641.31;4972918;28;19931;-80
2022/08/02 01:49:56;;;;;;;;;;;;;;;22.12;100.00;98638.47;4972850;28;19926;-80
2022/08/02 01:52:26;;;;;;;;;;;;;;;22.21;100.00;98636.19;4972895;28;19930;-80
2022/08/02 01:54:56;;;;;;;;;;;;;;;22.21;100.00;98635.41;4973932;28;19934;-80
2022/08/02 01:57:24;;;;;;;;;;;;;;;22.02;100.00;98623.72;4972895;28;19930;-80
2022/08/02 01:59:54;;;;;;;;;;;;;;;22.16;100.00;98631.25;4972432;28;19926;-79
2022/08/02 02:02:22;;;;;;;;;;;;;;;22.31;100.00;98623.28;4973518;28;20029;-80
2022/08/02 02:04:50;;;;;;;;;;;;;;;22.24;100.00;98620.16;4973810;28;20320;-80
2022/08/02 02:07:21;;;;;;;;;;;;;;;22.08;100.00;98621.66;4972682;28;19926;-80
2022/08/02 02:09:53;;;;;;;;;;;;;;;22.05;100.00;98631.22;4973578;28;20417;-80
2022/08/02 02:12:26;;;;;;;;;;;;;;;22.16;100.00;98625.56;4973647;28;20298;-79
2022/08/02 02:14:54;;;;;;;;;;;;;;;22.11;100.00;98637.72;4973573;28;19972;-80
2022/08/02 02:17:23;;;;;;;;;;;;;;;22.13;100.00;98628.66;4973436;28;19933;-80
2022/08/02 02:19:51;;;;;;;;;;;;;;;22.36;100.00;98645.28;4956590;28;19971;-80
2022/08/02 02:22:18;;;;;;;;;;;;;;;22.12;100.00;98636.41;4972520;28;20309;-80
2022/08/02 02:24:46;;;;;;;;;;;;;;;22.07;100.00;98654.22;4973433;28;19930;-80
2022/08/02 02:27:14;;;;;;;;;;;;;;;22.34;100.00;98633.63;4973421;28;19930;-80
2022/08/02 02:29:43;;;;;;;;;;;;;;;22.44;100.00;98629.28;4988306;28;19926;-80
2022/08/02 02:32:11;;;;;;;;;;;;;;;22.32;100.00;98646.81;4972311;28;19979;-80
2022/08/02 02:34:39;;;;;;;;;;;;;;;22.47;100.00;98631.09;4956242;28;20017;-80
2022/08/02 02:37:31;;;;;;;;;;;;;;;22.36;100.00;98621.72;4972350;28;20001;-80
2022/08/02 02:39:59;;;;;;;;;;;;;;;22.72;100.00;98624.41;4973300;28;20060;-80
2022/08/02 02:42:29;;;;;;;;;;;;;;;22.36;100.00;98622.53;4971856;28;19926;-81
2022/08/02 02:44:57;;;;;;;;;;;;;;;22.48;100.00;98614.78;4973264;28;19930;-80
2022/08/02 02:47:26;;;;;;;;;;;;;;;22.37;100.00;98606.97;4973231;28;19953;-80
2022/08/02 02:49:56;;;;;;;;;;;;;;;22.42;100.00;98605.44;4971936;28;20040;-80
2022/08/02 02:52:23;;;;;;;;;;;;;;;22.51;100.00;98611.72;4972016;28;20027;-80
2022/08/02 02:54:51;;;;;;;;;;;;;;;22.45;100.00;98618.66;4971751;28;19937;-80
2022/08/02 02:57:18;;;;;;;;;;;;;;;22.52;100.00;98599.03;4972816;28;19934;-81
2022/08/02 02:59:46;;;;;;;;;;;;;;;22.47;100.00;98594.09;4971729;28;19930;-80
2022/08/02 03:02:13;;;;;;;;;;;;;;;22.33;100.00;98597.94;4971776;28;19941;-80
2022/08/02 03:04:41;;;;;;;;;;;;;;;22.16;100.00;98582.88;4971732;28;20029;-80
2022/08/02 03:07:11;;;;;;;;;;;;;;;21.97;100.00;98592.38;4972832;28;19926;-81
2022/08/02 03:09:38;;;;;;;;;;;;;;;22.39;100.00;98581.66;4972589;28;20021;-80
2022/08/02 03:12:08;;;;;;;;;;;;;;;22.71;100.00;98570.84;4971501;28;20454;-80
2022/08/02 03:14:40;;;;;;;;;;;;;;;22.15;100.00;98569.97;4972758;28;20301;-81
2022/08/02 03:17:07;;;;;;;;;;;;;;;22.29;100.00;98576.72;4972757;28;19973;-80
2022/08/02 03:19:35;;;;;;;;;;;;;;;22.31;100.00;98583.44;4972162;28;19926;-80
2022/08/02 03:22:02;;;;;;;;;;;;;;;22.61;100.00;98578.84;4971483;28;19926;-80
2022/08/02 03:24:29;;;;;;;;;;;;;;;22.37;100.00;98574.91;4972680;28;19933;-80
2022/08/02 03:26:56;;;;;;;;;;;;;;;22.50;100.00;98567.47;4972552;28;20055;-80
2022/08/02 03:29:23;;;;;;;;;;;;;;;22.16;100.00;98562.97;4972495;28;19926;-80
2022/08/02 03:31:51;;;;;;;;;;;;;;;22.23;100.00;98564.53;4972388;28;19926;-80
2022/08/02 03:34:18;;;;;;;;;;;;;;;22.49;100.00;98560.16;4971320;28;19926;-80
2022/08/02 03:36:47;;;;;;;;;;;;;;;22.48;100.00;98558.63;4955245;28;19953;-80
2022/08/02 03:39:14;;;;;;;;;;;;;;;22.44;100.00;98546.72;4972275;28;19926;-80
2022/08/02 03:41:42;;;;;;;;;;;;;;;22.28;100.00;98553.16;4972283;28;20071;-80
2022/08/02 03:44:09;;;;;;;;;;;;;;;22.40;100.00;98546.19;4955071;28;19933;-80
2022/08/02 03:46:38;;;;;;;;;;;;;;;22.35;100.00;98549.81;4971124;28;19926;-80
2022/08/02 03:49:09;;;;;;;;;;;;;;;22.27;100.00;98547.97;4971246;28;20286;-80
2022/08/02 03:51:36;;;;;;;;;;;;;;;22.50;100.00;98555.25;4971142;28;19937;-80
2022/08/02 03:54:03;;;;;;;;;;;;;;;22.25;100.00;98550.59;4971036;28;19926;-80
2022/08/02 03:56:31;;;;;;;;;;;;;;;22.46;100.00;98549.81;4971028;28;19926;-80
2022/08/02 03:59:08;;;;;;;;;;;;;;;22.43;100.00;98536.63;4971122;28;19926;-80
2022/08/02 04:01:35;;;;;;;;;;;;;;;22.43;100.00;98533.78;4972241;28;19926;-80
2022/08/02 04:04:03;;;;;;;;;;;;;;;22.24;100.00;98544.09;4972154;28;19933;-80
2022/08/02 04:06:30;;;;;;;;;;;;;;;22.22;100.00;98537.38;4970969;28;19926;-80
2022/08/02 04:08:57;;;;;;;;;;;;;;;22.28;100.00;98538.94;4971693;28;20357;-80
2022/08/02 04:11:30;;;;;;;;;;;;;;;22.45;100.00;98536.88;4970867;28;19930;-80
2022/08/02 04:14:03;;;;;;;;;;;;;;;22.51;100.00;98534.06;4971980;28;19933;-80
2022/08/02 04:16:38;;;;;;;;;;;;;;;22.52;100.00;98541.31;4986194;28;19926;-80
2022/08/02 04:19:07;;;;;;;;;;;;;;;22.57;100.00;98527.09;4970114;28;19937;-80
2022/08/02 04:21:38;;;;;;;;;;;;;;;22.30;100.00;98516.44;4970294;28;19926;-80
2022/08/02 04:24:06;;;;;;;;;;;;;;;22.48;100.00;98523.69;4971670;28;19928;-80
2022/08/02 04:26:33;;;;;;;;;;;;;;;22.10;100.00;98518.75;4971176;28;19934;-80
2022/08/02 04:29:01;;;;;;;;;;;;;;;22.33;100.00;98518.25;4954108;28;19926;-80
2022/08/02 04:31:28;;;;;;;;;;;;;;;22.59;100.00;98530.19;4973933;28;19949;-80
2022/08/02 04:33:56;;;;;;;;;;;;;;;22.10;100.00;98504.53;4975224;28;19930;-80
2022/08/02 04:36:23;;;;;;;;;;;;;;;22.22;100.00;98506.84;4958001;28;19933;-80
2022/08/02 04:38:50;;;;;;;;;;;;;;;22.06;100.00;98504.75;4973954;28;19937;-80
2022/08/02 04:41:17;;;;;;;;;;;;;;;22.41;100.00;98510.75;4975030;28;20305;-80
2022/08/02 04:43:44;;;;;;;;;;;;;;;22.53;100.00;98515.19;4975040;28;19933;-80
2022/08/02 04:46:11;;;;;;;;;;;;;;;22.63;100.00;98510.78;4975102;28;19926;-80
2022/08/02 04:48:39;;;;;;;;;;;;;;;22.49;100.00;98508.94;4974995;28;19937;-80
2022/08/02 04:51:06;;;;;;;;;;;;;;;22.55;100.00;98511.81;4975084;28;20325;-80
2022/08/02 04:53:33;;;;;;;;;;;;;;;22.24;100.00;98527.03;4974869;28;19961;-80
2022/08/02 04:56:00;;;;;;;;;;;;;;;22.61;100.00;98532.53;4974948;28;19945;-80
2022/08/02 04:58:27;;;;;;;;;;;;;;;22.70;100.00;98540.81;4973992;28;19926;-80
2022/08/02 05:01:09;;;;;;;;;;;;;;;22.56;100.00;98544.69;4974962;28;20365;-80
2022/08/02 05:03:38;;;;;;;;;;;;;;;22.41;100.00;98542.06;4974904;28;19926;-80
2022/08/02 05:06:05;;;;;;;;;;;;;;;22.25;100.00;98551.34;4974706;28;20020;-80
2022/08/02 05:08:31;;;;;;;;;;;;;;;22.49;100.00;98551.63;4973373;28;19926;-80
2022/08/02 05:10:59;;;;;;;;;;;;;;;22.61;100.00;98538.22;4974861;28;19926;-80
2022/08/02 05:13:25;;;;;;;;;;;;;;;22.28;100.00;98530.38;4973598;28;19930;-80
2022/08/02 05:15:53;;;;;;;;;;;;;;;22.67;100.00;98531.22;4974462;28;20374;-80
2022/08/02 05:18:20;;;;;;;;;;;;;;;22.60;100.00;98523.19;4973377;28;19933;-80
2022/08/02 05:20:47;;;;;;;;;;;;;;;22.68;100.00;98527.09;4974731;28;19991;-79
2022/08/02 05:23:14;;;;;;;;;;;;;;;22.54;100.00;98533.81;4973268;28;19949;-80
2022/08/02 05:25:41;;;;;;;;;;;;;;;22.71;100.00;98525.25;4973243;28;19971;-80
2022/08/02 05:28:09;;;;;;;;;;;;;;;22.59;100.00;98535.91;4974422;28;19926;-80
2022/08/02 05:30:37;;;;;;;;;;;;;;;22.26;100.00;98540.75;4974203;28;19953;-79
2022/08/02 05:33:04;;;;;;;;;;;;;;;22.61;100.00;98538.97;4974057;28;19926;-79
2022/08/02 05:35:32;;;;;;;;;;;;;;;22.70;100.00;98541.56;4974069;28;20020;-79
2022/08/02 05:37:59;;;;;;;;;;;;;;;22.58;100.00;98550.66;4974159;28;20302;-79
2022/08/02 05:40:29;;;;;;;;;;;;;;;22.60;100.00;98543.13;4973094;28;20013;-79
2022/08/02 05:42:56;;;;;;;;;;;;;;;22.64;100.00;98549.34;4973714;28;19934;-79
2022/08/02 05:45:23;;;;;;;;;;;;;;;22.76;100.00;98544.44;4988877;28;20277;-79
2022/08/02 05:47:51;;;;;;;;;;;;;;;22.81;100.00;98547.25;4972784;28;19933;-79
2022/08/02 05:50:18;;;;;;;;;;;;;;;22.97;100.00;98542.84;4972740;28;19961;-79
2022/08/02 05:52:48;;;;;;;;;;;;;;;22.73;100.00;98539.78;4974044;28;19926;-79
2022/08/02 05:55:17;;;;;;;;;;;;;;;22.73;100.00;98551.16;4974026;28;19927;-79
2022/08/02 05:57:53;;;;;;;;;;;;;;;22.73;100.00;98563.31;4973958;28;20301;-79
2022/08/02 06:00:20;;;;;;;;;;;;;;;22.49;100.00;98570.78;4974082;28;19949;-79
2022/08/02 06:02:47;;;;;;;;;;;;;;;22.56;100.00;98573.94;4972681;28;19926;-79
2022/08/02 06:05:21;;;;;;;;;;;;;;;22.75;100.00;98583.50;4967207;28;19926;-79
2022/08/02 06:07:49;;;;;;;;;;;;;;;22.76;100.00;98582.25;4971271;28;20016;-79
2022/08/02 06:10:19;;;;;;;;;;;;;;;22.75;100.00;98583.50;4973086;28;19956;-79
2022/08/02 06:12:50;;;;;;;;;;;;;;;22.69;100.00;98579.88;4972252;28;19926;-79
2022/08/02 06:15:18;;;;;;;;;;;;;;;23.05;100.00;98583.78;4972938;28;20251;-79
2022/08/02 06:17:46;;;;;;;;;;;;;;;22.70;100.00;98592.81;4973642;28;20362;-79
2022/08/02 06:20:14;;;;;;;;;;;;;;;22.58;100.00;98582.72;4971939;28;19975;-79
2022/08/02 06:22:44;;;;;;;;;;;;;;;22.76;100.00;98585.09;4972098;28;19933;-79
2022/08/02 06:25:13;;;;;;;;;;;;;;;22.80;100.00;98585.59;4956562;28;19974;-80
2022/08/02 06:27:40;;;;;;;;;;;;;;;22.51;100.00;98586.09;4988447;28;19926;-79
2022/08/02 06:30:08;;;;;;;;;;;;;;;22.62;100.00;98583.25;4956277;28;20028;-80
2022/08/02 06:32:35;;;;;;;;;;;;;;;22.81;100.00;98583.53;4973493;28;19933;-79
2022/08/02 06:35:03;;;;;;;;;;;;;;;22.83;100.00;98578.88;4973137;28;19948;-79
2022/08/02 06:37:40;;;;;;;;;;;;;;;22.95;100.00;98568.22;4973183;28;19926;-79
2022/08/02 06:40:13;;;;;;;;;;;;;;;22.81;100.00;98560.75;4972027;28;20502;-79
2022/08/02 06:42:48;;;;;;;;;;;;;;;22.94;100.00;98567.47;4973175;28;19932;-79
2022/08/02 06:45:16;;;;;;;;;;;;;;;22.93;100.00;98571.59;4973299;28;20037;-79
2022/08/02 06:47:43;;;;;;;;;;;;;;;23.15;100.00;98562.25;4972086;28;19933;-79
2022/08/02 06:50:11;;;;;;;;;;;;;;;23.34;100.00;98562.50;4971817;28;20344;-79
2022/08/02 06:52:38;;;;;;;;;;;;;;;23.20;100.00;98567.19;4972620;28;20285;-79
2022/08/02 06:55:05;;;;;;;;;;;;;;;23.07;100.00;98564.84;4971112;28;19981;-79
2022/08/02 06:57:33;;;;;;;;;;;;;;;23.29;100.00;98560.44;4972134;28;20358;-78
2022/08/02 07:00:03;;;;;;;;;;;;;;;22.98;100.00;98565.13;4972842;28;19976;-78
2022/08/02 07:02:30;;;;;;;;;;;;;;;23.02;100.00;98567.72;4971272;28;19926;-78
2022/08/02 07:04:57;;;;;;;;;;;;;;;22.99;100.00;98575.22;4972709;28;20270;-77
2022/08/02 07:07:25;;;;;;;;;;;;;;;23.00;100.00;98570.31;4972768;28;19926;-77
2022/08/02 07:09:52;;;;;;;;;;;;;;;22.99;100.00;98575.22;4972457;28;19927;-77
2022/08/02 07:12:19;;;;;;;;;;;;;;;22.82;100.00;98576.53;4965429;28;19933;-75
2022/08/02 07:14:47;;;;;;;;;;;;;;;22.90;100.00;98581.19;4965676;28;20421;-75
2022/08/02 07:17:14;;;;;;;;;;;;;;;22.95;100.00;98580.41;4958704;28;20063;-75
2022/08/02 07:19:41;;;;;;;;;;;;;;;23.13;100.00;98564.09;4952593;28;19933;-75
2022/08/02 07:22:08;;;;;;;;;;;;;;;23.00;100.00;98564.59;4966590;28;20360;-75
2022/08/02 07:24:35;;;;;;;;;;;;;;;22.85;100.00;98572.66;4964330;28;19926;-76
2022/08/02 07:27:02;;;;;;;;;;;;;;;23.10;100.00;98582.97;4973162;28;19930;-75
2022/08/02 07:29:38;;;;;;;;;;;;;;;23.13;100.00;98578.31;4969857;28;19926;-75
2022/08/02 07:32:05;;;;;;;;;;;;;;;23.24;100.00;98579.09;4969594;28;19979;-75
2022/08/02 07:34:32;;;;;;;;;;;;;;;23.35;100.00;98584.00;4971907;28;19930;-75
2022/08/02 07:37:00;;;;;;;;;;;;;;;23.33;100.00;98589.44;4970631;28;19926;-75
2022/08/02 07:39:28;;;;;;;;;;;;;;;23.17;100.00;98574.69;4971773;28;19925;-76
2022/08/02 07:41:56;;;;;;;;;;;;;;;23.19;100.00;98573.41;4970621;28;20377;-76
2022/08/02 07:44:23;;;;;;;;;;;;;;;23.23;100.00;98571.03;4961950;28;20302;-77
2022/08/02 07:46:50;;;;;;;;;;;;;;;23.37;100.00;98561.47;4956178;28;19979;-78
2022/08/02 07:49:17;;;;;;;;;;;;;;;23.19;100.00;98570.53;4969039;28;19937;-78
2022/08/02 07:51:44;;;;;;;;;;;;;;;23.11;100.00;98571.06;4963101;28;20013;-81
2022/08/02 07:54:12;;;;;;;;;;;;;;;23.04;100.00;98577.28;4967685;28;19930;-80
2022/08/02 07:56:39;;;;;;;;;;;;;;;23.22;100.00;98572.34;4967103;28;19977;-80
2022/08/02 07:59:06;;;;;;;;;;;;;;;23.45;100.00;98576.72;4967096;28;19930;-82
2022/08/02 08:01:33;;;;;;;;;;;;;;;23.28;100.00;98578.84;4967530;28;19968;-82
2022/08/02 08:04:01;;;;;;;;;;;;;;;23.11;100.00;98587.41;4967660;28;20420;-82
2022/08/02 08:06:28;;;;;;;;;;;;;;;23.32;100.00;98580.13;4970588;28;19964;-79
2022/08/02 08:08:55;;;;;;;;;;;;;;;23.66;100.00;98583.69;4970574;28;20037;-80
2022/08/02 08:11:23;;;;;;;;;;;;;;;23.41;100.00;98576.22;4971436;28;19926;-80
2022/08/02 08:13:50;;;;;;;;;;;;;;;23.60;100.00;98575.13;4955123;28;19926;-80
2022/08/02 08:16:17;;;;;;;;;;;;;;;23.45;100.00;98568.16;4971569;28;19937;-80
2022/08/02 08:18:44;;;;;;;;;;;;;;;23.70;100.00;98558.50;4970709;28;20075;-82
2022/08/02 08:21:12;;;;;;;;;;;;;;;23.59;100.00;98572.78;5018690;28;20293;-79
2022/08/02 08:23:39;;;;;;;;;;;;;;;23.50;100.00;98567.38;4959373;28;20021;-79
2022/08/02 08:26:06;;;;;;;;;;;;;;;23.34;100.00;98577.53;4961508;28;19934;-79
2022/08/02 08:28:35;;;;;;;;;;;;;;;23.78;100.00;98573.78;4950927;29;19927;-79
2022/08/02 08:31:02;;;;;;;;;;;;;;;24.00;100.00;98570.84;4951055;28;19930;-80
2022/08/02 08:33:29;;;;;;;;;;;;;;;23.81;100.00;98564.94;4951817;28;19926;-80
2022/08/02 08:35:56;;;;;;;;;;;;;;;23.99;100.00;98561.50;4952427;28;19930;-80
2022/08/02 08:38:24;;;;;;;;;;;;;;;24.07;100.00;98561.72;4952175;28;19927;-80
2022/08/02 08:40:51;;;;;;;;;;;;;;;23.48;100.00;98567.16;4952400;28;20350;-81
2022/08/02 08:43:18;;;;;;;;;;;;;;;24.03;100.00;98558.38;4953025;28;19927;-81
2022/08/02 08:45:46;;;;;;;;;;;;;;;24.19;100.00;98560.34;4951853;29;19931;-80
2022/08/02 08:48:14;;;;;;;;;;;;;;;23.79;100.00;98561.06;4965094;28;19926;-80
2022/08/02 08:50:48;;;;;;;;;;;;;;;23.62;100.00;98551.78;4990827;28;19942;-80
2022/08/02 08:53:16;;;;;;;;;;;;;;;23.54;100.00;98550.81;4965029;28;19979;-80
2022/08/02 08:55:44;;;;;;;;;;;;;;;23.61;100.00;98555.94;4967843;28;20019;-81
2022/08/02 08:58:12;;;;;;;;;;;;;;;23.65;100.00;98557.22;4971465;28;19933;-82
2022/08/02 09:00:40;;;;;;;;;;;;;;;23.83;100.00;98565.19;4962820;28;20035;-79
2022/08/02 09:03:08;;;;;;;;;;;;;;;23.78;100.00;98550.97;4968599;28;19927;-77
2022/08/02 09:05:36;;;;;;;;;;;;;;;23.46;100.00;98556.25;4964531;28;20011;-78
2022/08/02 09:08:04;;;;;;;;;;;;;;;23.67;100.00;98551.00;4971914;28;19988;-82
2022/08/02 09:10:34;;;;;;;;;;;;;;;23.77;100.00;98557.94;4969964;28;20011;-81
2022/08/02 09:13:09;;;;;;;;;;;;;;;23.73;100.00;98552.53;4939187;28;20484;-82
2022/08/02 09:15:36;;;;;;;;;;;;;;;23.87;100.00;98550.66;4953896;28;19930;-82
2022/08/02 09:18:04;;;;;;;;;;;;;;;23.84;100.00;98546.00;4966061;28;20271;-82
2022/08/02 09:20:33;;;;;;;;;;;;;;;23.64;100.00;98540.63;4965078;28;20016;-81
2022/08/02 09:23:07;;;;;;;;;;;;;;;23.83;100.00;98521.63;4968895;28;19926;-82
2022/08/02 09:25:34;;;;;;;;;;;;;;;23.54;100.00;98545.09;4971627;28;19960;-81
2022/08/02 09:28:05;;;;;;;;;;;;;;;23.46;100.00;98539.13;4961127;28;19926;-82
2022/08/02 09:30:41;;;;;;;;;;;;;;;23.77;100.00;98546.53;4966380;28;20011;-81
2022/08/02 09:33:08;;;;;;;;;;;;;;;23.99;100.00;98529.34;4972201;28;20025;-83
2022/08/02 09:35:38;;;;;;;;;;;;;;;24.27;100.00;98532.81;4966273;28;19926;-82
2022/08/02 09:38:09;;;;;;;;;;;;;;;24.55;100.00;98524.81;4954233;29;19968;-82
2022/08/02 09:40:38;;;;;;;;;;;;;;;24.76;100.00;98540.25;4963748;28;19926;-82
2022/08/02 09:43:05;;;;;;;;;;;;;;;24.85;100.00;98517.06;4940343;28;19930;-82
2022/08/02 09:45:35;;;;;;;;;;;;;;;24.71;100.00;98515.38;4970292;28;19934;-82
2022/08/02 09:48:07;;;;;;;;;;;;;;;24.66;100.00;98524.75;4973533;28;19933;-82
2022/08/02 09:50:39;;;;;;;;;;;;;;;24.51;100.00;98518.59;4974205;28;19933;-82
2022/08/02 09:53:12;;;;;;;;;;;;;;;24.50;100.00;98531.34;4974233;28;19965;-80
2022/08/02 09:55:40;;;;;;;;;;;;;;;24.30;100.00;98537.44;4974048;28;20029;-81
2022/08/02 09:58:17;;;;;;;;;;;;;;;23.89;100.00;98550.88;4973730;28;19926;-81
2022/08/02 10:00:55;;;;;;;;;;;;;;;23.85;100.00;98548.34;4973785;28;20011;-81
2022/08/02 10:03:22;;;;;;;;;;;;;;;23.98;100.00;98548.53;4956959;28;20448;-80
2022/08/02 10:05:57;;;;;;;;;;;;;;;23.71;100.00;98560.84;4972726;28;19934;-80
2022/08/02 10:08:24;;;;;;;;;;;;;;;23.80;100.00;98562.59;4972217;28;20345;-81
2022/08/02 10:10:59;;;;;;;;;;;;;;;24.12;100.00;98566.63;4972926;28;19934;-83
2022/08/02 10:13:35;;;;;;;;;;;;;;;24.04;100.00;98574.19;4969255;28;19980;-82
2022/08/02 10:16:05;;;;;;;;;;;;;;;24.02;100.00;98571.09;4958153;28;19927;-82
2022/08/02 10:18:33;;;;;;;;;;;;;;;23.75;100.00;98560.56;4937667;29;19930;-82
2022/08/02 10:21:18;;;;;;;;;;;;;;;23.96;100.00;98559.69;4969711;28;19934;-82
2022/08/02 10:23:47;;;;;;;;;;;;;;;23.91;100.00;98559.72;4954640;28;19927;-82
2022/08/02 10:26:16;;;;;;;;;;;;;;;24.02;100.00;98571.09;4954344;28;19969;-81
2022/08/02 10:28:45;;;;;;;;;;;;;;;23.93;100.00;98565.69;4952433;28;19926;-82
2022/08/02 10:31:13;;;;;;;;;;;;;;;24.18;100.00;98573.06;4953216;28;19927;-82
2022/08/02 10:33:42;;;;;;;;;;;;;;;23.93;100.00;98571.38;4920913;28;19933;-82
2022/08/02 10:36:13;;;;;;;;;;;;;;;24.04;100.00;98580.69;4936635;29;19934;-82
2022/08/02 10:38:40;;;;;;;;;;;;;;;24.13;100.00;98571.03;4954171;28;19926;-82
2022/08/02 10:41:07;;;;;;;;;;;;;;;24.30;100.00;98554.59;4952552;29;20366;-82
2022/08/02 10:43:34;;;;;;;;;;;;;;;23.90;100.00;98569.56;4952375;29;20382;-81
2022/08/02 10:46:20;;;;;;;;;;;;;;;24.24;100.00;98560.34;4953578;28;19926;-81
2022/08/02 10:49:07;;;;;;;;;;;;;;;24.41;100.00;98563.09;4953995;28;19927;-81
2022/08/02 10:51:50;;;;;;;;;;;;;;;24.13;100.00;98562.47;4954060;29;19926;-80
2022/08/02 10:54:19;;;;;;;;;;;;;;;24.31;100.00;98550.44;4952702;29;20569;-80
2022/08/02 10:56:49;;;;;;;;;;;;;;;24.45;100.00;98564.34;4952031;29;19926;-80
2022/08/02 10:59:31;;;;;;;;;;;;;;;24.36;100.00;98556.09;4952388;28;19997;-80
2022/08/02 11:02:03;;;;;;;;;;;;;;;24.33;100.00;98542.09;4951215;29;19962;-80
2022/08/02 11:04:30;;;;;;;;;;;;;;;24.34;100.00;98543.69;4952196;28;20341;-80
2022/08/02 11:07:13;;;;;;;;;;;;;;;24.42;100.00;98536.06;4952294;29;20275;-80
2022/08/02 11:09:40;;;;;;;;;;;;;;;24.82;100.00;98532.41;4951615;28;19933;-80
2022/08/02 11:12:09;;;;;;;;;;;;;;;24.94;100.00;98527.38;4952116;28;19933;-80
2022/08/02 11:14:38;;;;;;;;;;;;;;;24.73;100.00;98510.66;4952575;29;19927;-80
2022/08/02 11:17:11;;;;;;;;;;;;;;;25.10;100.00;98497.84;4952870;28;19950;-80
2022/08/02 11:20:06;;;;;;;;;;;;;;;25.30;100.00;98506.72;4935376;29;20561;-80
2022/08/02 11:23:23;;;;;;;;;;;;;;;24.87;100.00;98493.66;4955556;28;19926;-80
2022/08/02 11:25:52;;;;;;;;;;;;;;;24.98;100.00;98505.00;4953131;28;19926;-80
2022/08/02 11:28:29;;;;;;;;;;;;;;;25.49;100.00;98498.97;4953232;28;19930;-80
2022/08/02 11:31:00;;;;;;;;;;;;;;;25.72;100.00;98482.34;4951866;29;20408;-80
2022/08/02 11:33:32;;;;;;;;;;;;;;;25.57;100.00;98488.47;4937701;28;19966;-80
2022/08/02 11:36:03;;;;;;;;;;;;;;;26.05;100.00;98485.50;4952235;29;20485;-81
2022/08/02 11:38:31;;;;;;;;;;;;;;;26.06;100.00;98489.94;4952238;29;20350;-80
2022/08/02 11:40:58;;;;;;;;;;;;;;;26.15;100.00;98483.81;4951911;29;19927;-80
2022/08/02 11:43:26;;;;;;;;;;;;;;;25.66;100.00;98476.66;4951987;29;19976;-80
2022/08/02 11:45:54;;;;;;;;;;;;;;;26.01;100.00;98487.91;4953172;28;19926;-80
2022/08/02 11:48:30;;;;;;;;;;;;;;;25.50;100.00;98483.38;4953349;28;20378;-80
2022/08/02 11:51:16;;;;;;;;;;;;;;;25.68;100.00;98494.06;4953201;29;19934;-80
2022/08/02 11:53:47;;;;;;;;;;;;;;;25.43;100.00;98483.22;4953081;28;20011;-81
2022/08/02 11:56:14;;;;;;;;;;;;;;;25.56;100.00;98491.88;4953242;28;20364;-79
2022/08/02 11:58:59;;;;;;;;;;;;;;;25.06;100.00;98489.56;4951548;29;19927;-80
2022/08/02 12:01:26;;;;;;;;;;;;;;;24.93;100.00;98492.28;4953075;29;19926;-80
2022/08/02 12:03:57;;;;;;;;;;;;;;;24.72;100.00;98485.47;4952031;29;19927;-80
2022/08/02 12:06:25;;;;;;;;;;;;;;;25.11;100.00;98497.31;4953056;28;20401;-80
2022/08/02 12:08:57;;;;;;;;;;;;;;;24.99;100.00;98497.97;4960005;28;20405;-78
2022/08/02 12:11:24;;;;;;;;;;;;;;;25.62;100.00;98501.94;4988123;28;19925;-79
2022/08/02 12:13:51;;;;;;;;;;;;;;;25.99;100.00;98507.72;4962743;28;19927;-79
2022/08/02 12:19:17;;;;;;;;;;;;;;;26.39;100.00;98492.28;4948771;28;19958;-79
2022/08/02 12:21:45;;;;;;;;;;;;;;;26.56;100.00;98485.50;4948465;28;20380;-80
2022/08/02 12:24:25;;;;;;;;;;;;;;;27.19;100.00;98485.47;4947893;28;20061;-80
2022/08/02 12:26:52;;;;;;;;;;;;;;;26.84;100.00;98482.97;4947208;28;20435;-79
2022/08/02 12:29:29;;;;;;;;;;;;;;;27.00;100.00;98476.16;4948759;28;19926;-80
2022/08/02 12:31:56;;;;;;;;;;;;;;;26.74;100.00;98493.28;4947915;28;19931;-80
2022/08/02 12:34:24;;;;;;;;;;;;;;;26.71;100.00;98485.78;4931483;28;20370;-80
2022/08/02 12:37:01;;;;;;;;;;;;;;;26.64;100.00;98474.97;4947874;28;19927;-79
2022/08/02 12:39:39;;;;;;;;;;;;;;;26.66;100.00;98486.69;4947134;28;19926;-79
2022/08/02 12:42:08;;;;;;;;;;;;;;;26.73;100.00;98472.47;4946687;28;19927;-79
2022/08/02 12:44:36;;;;;;;;;;;;;;;27.04;100.00;98463.03;4947590;28;19957;-79
2022/08/02 12:47:05;;;;;;;;;;;;;;;26.96;100.00;98496.53;4949909;28;19973;-79
2022/08/02 12:49:32;;;;;;;;;;;;;;;27.19;100.00;98491.19;4935034;29;19926;-79
2022/08/02 12:51:59;;;;;;;;;;;;;;;26.96;100.00;98485.06;4953695;28;19976;-79